Time;durP1;ratioP1;P1;durP2;ratioP2;P2;SDS_P1;SDS_P2;PMS_P1;PMS_P2;Temp;Humidity;BMP_temperature;BMP_pressure;BME280_temperature;BME280_humidity;BME280_pressure;Samples;Min_cycle;Max_cycle;Signal;HPM_P1;HPM_P2
2021/01/18 00:00:57;;;;;;;37.20;17.35;;;2.10;99.90;;;;;;5034701;28;20231;-76
2021/01/18 00:03:24;;;;;;;40.35;18.33;;;2.10;99.90;;;;;;5031243;28;20053;-75
2021/01/18 00:05:50;;;;;;;43.20;18.25;;;2.10;99.90;;;;;;5029729;28;20144;-76
2021/01/18 00:08:17;;;;;;;35.78;15.70;;;2.10;99.90;;;;;;5042981;28;20571;-76
2021/01/18 00:10:44;;;;;;;38.80;16.08;;;2.10;99.90;;;;;;5030157;28;20045;-76
2021/01/18 00:13:10;;;;;;;31.98;14.20;;;2.10;99.90;;;;;;5029702;28;20068;-76
2021/01/18 00:15:36;;;;;;;33.35;13.93;;;2.10;99.90;;;;;;5029683;28;20144;-75
2021/01/18 00:18:03;;;;;;;34.85;15.05;;;2.00;99.90;;;;;;5028352;28;20094;-75
2021/01/18 00:20:30;;;;;;;30.80;12.73;;;2.00;99.90;;;;;;5060677;28;20052;-75
2021/01/18 00:22:56;;;;;;;30.92;13.45;;;2.00;99.90;;;;;;5032719;28;20127;-76
2021/01/18 00:25:24;;;;;;;31.15;13.80;;;2.00;99.90;;;;;;5047733;28;20155;-75
2021/01/18 00:27:51;;;;;;;40.63;14.98;;;2.10;99.90;;;;;;5047462;28;20087;-75
2021/01/18 00:30:20;;;;;;;34.17;14.00;;;2.10;99.90;;;;;;5053454;28;20491;-76
2021/01/18 00:32:48;;;;;;;33.35;16.63;;;2.10;99.90;;;;;;5038334;28;20091;-76
2021/01/18 00:35:16;;;;;;;42.35;18.20;;;2.10;99.90;;;;;;5034073;28;20083;-76
2021/01/18 00:37:51;;;;;;;42.20;16.13;;;2.00;99.90;;;;;;5032826;28;20118;-75
2021/01/18 00:40:23;;;;;;;34.25;13.95;;;1.90;99.90;;;;;;5049966;28;20051;-76
2021/01/18 00:42:49;;;;;;;34.33;15.50;;;1.80;99.90;;;;;;5040795;28;20193;-76
2021/01/18 00:45:18;;;;;;;36.35;13.70;;;1.70;99.90;;;;;;5047506;28;20062;-76
2021/01/18 00:47:50;;;;;;;29.90;14.70;;;1.70;99.90;;;;;;5035574;28;20056;-75
2021/01/18 00:50:19;;;;;;;34.83;16.42;;;1.70;99.90;;;;;;5046313;28;20121;-75
2021/01/18 00:52:48;;;;;;;37.30;15.30;;;1.80;99.90;;;;;;5040764;28;20077;-76
2021/01/18 00:55:17;;;;;;;37.65;15.85;;;1.80;99.90;;;;;;5033861;28;20396;-76
2021/01/18 00:57:45;;;;;;;37.92;15.13;;;1.80;99.90;;;;;;5033751;28;20100;-76
2021/01/18 01:00:18;;;;;;;32.80;15.35;;;1.80;99.90;;;;;;5045014;28;20127;-76
2021/01/18 01:02:47;;;;;;;35.50;16.00;;;1.80;99.90;;;;;;5050578;28;20558;-75
2021/01/18 01:05:17;;;;;;;30.00;14.20;;;1.80;99.90;;;;;;5060473;28;20056;-75
2021/01/18 01:07:51;;;;;;;41.92;15.82;;;1.80;99.90;;;;;;5050160;28;20477;-75
2021/01/18 01:10:38;;;;;;;44.35;16.98;;;1.70;99.90;;;;;;5050961;28;20059;-75
2021/01/18 01:13:07;;;;;;;43.90;16.27;;;1.70;99.90;;;;;;5045679;28;20063;-76
2021/01/18 01:15:34;;;;;;;33.78;15.93;;;1.70;99.90;;;;;;5057289;28;20045;-75
2021/01/18 01:18:01;;;;;;;35.72;15.48;;;1.70;99.90;;;;;;5049867;28;20511;-75
2021/01/18 01:20:27;;;;;;;35.20;15.80;;;1.70;99.90;;;;;;5031716;28;20164;-76
2021/01/18 01:22:54;;;;;;;35.17;16.70;;;1.60;99.90;;;;;;5052012;28;20436;-75
2021/01/18 01:25:23;;;;;;;43.00;18.35;;;1.60;99.90;;;;;;5042548;28;20144;-76
2021/01/18 01:27:50;;;;;;;41.97;17.77;;;1.80;99.90;;;;;;5034716;28;20155;-75
2021/01/18 01:30:21;;;;;;;45.08;18.10;;;1.80;99.90;;;;;;5038794;28;20131;-75
2021/01/18 01:32:50;;;;;;;43.05;17.80;;;1.70;99.90;;;;;;5036681;28;20468;-76
2021/01/18 01:35:19;;;;;;;43.75;15.88;;;1.70;99.90;;;;;;5048938;28;20075;-75
2021/01/18 01:37:46;;;;;;;34.60;15.55;;;1.60;99.90;;;;;;5040913;28;20124;-76
2021/01/18 01:40:14;;;;;;;44.03;17.35;;;1.60;99.90;;;;;;5042745;28;20091;-76
2021/01/18 01:42:41;;;;;;;51.95;14.85;;;1.70;99.90;;;;;;5038362;28;20095;-75
2021/01/18 01:45:12;;;;;;;40.78;16.48;;;1.60;99.90;;;;;;5035860;28;20110;-75
2021/01/18 01:48:00;;;;;;;45.75;17.33;;;1.70;99.90;;;;;;5042407;28;20388;-76
2021/01/18 01:50:31;;;;;;;37.42;15.27;;;1.70;99.90;;;;;;5039245;28;20136;-75
2021/01/18 01:53:14;;;;;;;28.73;13.68;;;1.80;99.90;;;;;;5049278;28;20045;-76
2021/01/18 01:55:41;;;;;;;39.92;14.50;;;1.80;99.90;;;;;;5046153;28;20041;-76
2021/01/18 01:58:08;;;;;;;30.02;12.95;;;1.80;99.90;;;;;;5039293;28;20562;-75
2021/01/18 02:00:38;;;;;;;36.22;14.30;;;1.90;99.90;;;;;;5037237;28;20478;-75
2021/01/18 02:03:09;;;;;;;27.58;11.77;;;1.90;99.90;;;;;;5035984;28;20429;-76
2021/01/18 02:05:37;;;;;;;28.30;12.48;;;1.90;99.90;;;;;;5038275;28;20512;-75
2021/01/18 02:08:05;;;;;;;27.00;11.32;;;1.90;99.90;;;;;;5041563;28;20095;-76
2021/01/18 02:10:32;;;;;;;29.52;11.02;;;1.90;99.90;;;;;;5041966;28;20584;-76
2021/01/18 02:13:00;;;;;;;25.10;11.23;;;1.80;99.90;;;;;;5032465;28;20076;-75
2021/01/18 02:16:06;;;;;;;21.15;11.60;;;1.90;99.90;;;;;;5034333;28;20041;-75
2021/01/18 02:18:53;;;;;;;21.80;10.27;;;2.00;99.90;;;;;;5037926;28;20081;-76
2021/01/18 02:22:12;;;;;;;30.70;11.63;;;2.00;99.90;;;;;;5034643;28;20128;-76
2021/01/18 02:25:04;;;;;;;19.58;9.23;;;1.90;99.90;;;;;;5037231;28;20041;-76
2021/01/18 02:27:57;;;;;;;25.52;10.90;;;1.90;99.90;;;;;;5041878;28;20049;-76
2021/01/18 02:31:01;;;;;;;19.85;9.85;;;2.00;99.90;;;;;;5036776;28;20102;-75
2021/01/18 02:33:39;;;;;;;22.70;9.48;;;2.10;99.90;;;;;;5037398;28;20045;-76
2021/01/18 02:36:24;;;;;;;24.35;10.73;;;2.00;99.90;;;;;;5041959;28;20159;-76
2021/01/18 02:39:21;;;;;;;23.40;11.52;;;2.00;99.90;;;;;;5044232;28;20045;-76
2021/01/18 02:42:07;;;;;;;24.88;10.40;;;2.10;99.90;;;;;;5034012;28;20137;-76
2021/01/18 02:44:36;;;;;;;29.25;10.43;;;2.00;99.90;;;;;;5041796;28;20218;-76
2021/01/18 02:47:04;;;;;;;19.95;9.55;;;2.00;99.90;;;;;;5031102;28;20045;-76
2021/01/18 02:49:32;;;;;;;21.42;9.43;;;1.90;99.90;;;;;;5035103;28;20492;-76
2021/01/18 02:52:09;;;;;;;24.92;11.18;;;2.00;99.90;;;;;;5042024;28;20147;-75
2021/01/18 02:54:36;;;;;;;29.27;11.65;;;2.00;99.90;;;;;;5042955;28;20106;-75
2021/01/18 02:57:12;;;;;;;26.30;11.38;;;1.90;99.90;;;;;;5047209;28;20107;-75
2021/01/18 02:59:39;;;;;;;26.35;11.15;;;1.90;99.90;;;;;;5049608;28;20072;-76
2021/01/18 03:02:18;;;;;;;27.02;11.18;;;1.90;99.90;;;;;;5042293;28;20077;-75
2021/01/18 03:05:02;;;;;;;22.40;9.85;;;2.00;99.90;;;;;;5045188;28;20576;-76
2021/01/18 03:07:42;;;;;;;23.75;10.05;;;2.00;99.90;;;;;;5042022;28;20455;-75
2021/01/18 03:10:31;;;;;;;21.67;9.82;;;2.00;99.90;;;;;;5035627;28;20037;-75
2021/01/18 03:13:03;;;;;;;22.52;10.38;;;1.90;99.90;;;;;;5033811;28;20128;-75
2021/01/18 03:18:09;;;;;;;24.95;10.88;;;2.00;99.90;;;;;;5023118;23;20082;-77
2021/01/18 03:20:36;;;;;;;32.20;12.00;;;1.90;99.90;;;;;;4946226;28;20044;-78
2021/01/18 03:23:07;;;;;;;22.73;11.55;;;1.90;99.90;;;;;;4947543;29;20627;-75
2021/01/18 03:25:49;;;;;;;32.33;11.88;;;1.90;99.90;;;;;;4951689;28;20484;-75
2021/01/18 03:28:16;;;;;;;28.98;12.23;;;1.90;99.90;;;;;;4950824;28;20059;-75
2021/01/18 03:30:43;;;;;;;26.20;12.60;;;1.90;99.90;;;;;;4951402;28;20375;-75
2021/01/18 03:33:10;;;;;;;30.75;12.30;;;1.90;99.90;;;;;;4951404;28;20067;-76
2021/01/18 03:35:36;;;;;;;21.38;10.50;;;1.90;99.90;;;;;;4949952;28;20150;-75
2021/01/18 03:38:03;;;;;;;25.67;12.32;;;1.90;99.90;;;;;;4950162;28;20066;-75
2021/01/18 03:40:30;;;;;;;29.02;11.85;;;1.90;99.90;;;;;;4951645;28;20055;-78
2021/01/18 03:42:58;;;;;;;28.08;11.65;;;1.90;99.90;;;;;;4949721;28;20142;-75
2021/01/18 03:45:26;;;;;;;31.30;12.05;;;1.90;99.90;;;;;;4951254;28;20130;-77
2021/01/18 03:47:52;;;;;;;26.45;12.45;;;1.80;99.90;;;;;;4950000;28;20055;-77
2021/01/18 03:50:19;;;;;;;30.05;10.73;;;1.80;99.90;;;;;;4949313;28;20105;-77
2021/01/18 03:52:50;;;;;;;21.67;10.95;;;1.80;99.90;;;;;;4949977;28;20047;-77
2021/01/18 03:55:18;;;;;;;23.65;11.07;;;1.80;99.90;;;;;;4951199;28;20062;-77
2021/01/18 03:57:47;;;;;;;32.65;13.55;;;1.70;99.90;;;;;;4950081;28;20044;-77
2021/01/18 04:00:14;;;;;;;30.35;11.90;;;1.70;99.90;;;;;;4949513;28;20121;-77
2021/01/18 04:02:40;;;;;;;27.85;12.95;;;1.70;99.90;;;;;;4948863;28;20047;-78
2021/01/18 04:05:08;;;;;;;29.05;13.45;;;1.70;99.90;;;;;;4949428;29;20090;-77
2021/01/18 04:07:34;;;;;;;30.48;11.63;;;1.70;99.90;;;;;;4950017;28;20079;-77
2021/01/18 04:10:01;;;;;;;28.40;11.70;;;1.70;99.90;;;;;;4950645;28;20129;-77
2021/01/18 04:12:27;;;;;;;22.70;11.30;;;1.70;99.90;;;;;;4949876;28;20086;-77
2021/01/18 04:14:54;;;;;;;37.83;13.55;;;1.70;99.90;;;;;;4950115;28;20106;-77
2021/01/18 04:17:20;;;;;;;29.23;10.98;;;1.70;99.90;;;;;;4949082;28;20137;-77
2021/01/18 04:19:47;;;;;;;23.70;10.18;;;1.70;99.90;;;;;;4948240;28;20051;-77
2021/01/18 04:22:13;;;;;;;32.05;11.80;;;1.60;99.90;;;;;;4950264;28;20470;-77
2021/01/18 04:24:40;;;;;;;24.23;11.00;;;1.50;99.90;;;;;;4944003;29;20106;-77
2021/01/18 04:27:09;;;;;;;25.70;10.43;;;1.50;99.90;;;;;;4949407;28;20110;-77
2021/01/18 04:29:36;;;;;;;37.00;12.05;;;1.50;99.90;;;;;;4950801;28;20176;-77
2021/01/18 04:32:03;;;;;;;32.03;11.40;;;1.60;99.90;;;;;;4949183;28;20231;-77
2021/01/18 04:34:29;;;;;;;28.95;11.45;;;1.60;99.90;;;;;;4949280;29;20134;-77
2021/01/18 04:36:56;;;;;;;32.70;10.40;;;1.50;99.90;;;;;;4947661;28;20470;-77
2021/01/18 04:39:22;;;;;;;28.08;10.88;;;1.50;99.90;;;;;;4950031;28;20071;-76
2021/01/18 04:41:49;;;;;;;24.30;9.93;;;1.50;99.90;;;;;;4950037;28;20051;-77
2021/01/18 04:44:16;;;;;;;29.35;11.88;;;1.60;99.90;;;;;;4950210;29;20501;-77
2021/01/18 04:46:45;;;;;;;25.65;11.63;;;1.50;99.90;;;;;;4948531;28;20482;-77
2021/01/18 04:49:14;;;;;;;28.50;10.82;;;1.50;99.90;;;;;;4949973;28;20079;-77
2021/01/18 04:51:46;;;;;;;26.90;12.15;;;1.60;99.90;;;;;;4944578;28;20106;-77
2021/01/18 04:54:17;;;;;;;28.47;10.30;;;1.60;99.90;;;;;;4948652;29;20075;-77
2021/01/18 04:57:09;;;;;;;20.80;10.57;;;1.50;99.90;;;;;;4948916;28;20363;-77
2021/01/18 04:59:45;;;;;;;24.83;10.77;;;1.60;99.90;;;;;;4949419;29;20068;-77
2021/01/18 05:02:20;;;;;;;32.83;11.90;;;1.60;99.90;;;;;;4947361;28;20122;-77
2021/01/18 05:04:51;;;;;;;27.52;10.68;;;1.60;99.90;;;;;;4949192;28;20113;-77
2021/01/18 05:07:36;;;;;;;25.05;9.73;;;1.60;99.90;;;;;;4949150;28;20075;-77
2021/01/18 05:10:04;;;;;;;26.33;11.27;;;1.60;99.90;;;;;;4949077;28;20536;-77
2021/01/18 05:12:31;;;;;;;32.28;13.88;;;1.60;99.90;;;;;;4949769;28;20138;-76
2021/01/18 05:15:09;;;;;;;29.70;12.90;;;1.60;99.90;;;;;;4950628;28;20074;-77
2021/01/18 05:17:41;;;;;;;27.35;13.23;;;1.50;99.90;;;;;;4950328;29;20134;-77
2021/01/18 05:20:12;;;;;;;38.53;13.77;;;1.50;99.90;;;;;;4952378;28;20047;-77
2021/01/18 05:22:43;;;;;;;38.42;14.95;;;1.50;99.90;;;;;;4954422;28;20075;-77
2021/01/18 05:25:13;;;;;;;30.35;12.48;;;1.50;99.90;;;;;;4952612;29;20259;-77
2021/01/18 05:28:02;;;;;;;32.58;14.02;;;1.50;99.90;;;;;;4952534;28;20122;-77
2021/01/18 05:30:32;;;;;;;30.20;12.23;;;1.50;99.90;;;;;;4949931;29;20079;-77
2021/01/18 05:33:05;;;;;;;27.58;12.98;;;1.60;99.90;;;;;;4952426;28;20458;-77
2021/01/18 05:35:34;;;;;;;28.95;12.55;;;1.60;99.90;;;;;;4954247;28;20082;-76
2021/01/18 05:38:02;;;;;;;35.10;13.60;;;1.50;99.90;;;;;;4952415;28;20451;-77
2021/01/18 05:40:34;;;;;;;34.70;13.13;;;1.60;99.90;;;;;;4953412;28;20494;-77
2021/01/18 05:43:02;;;;;;;32.47;14.55;;;1.60;99.90;;;;;;4950879;29;20538;-77
2021/01/18 05:45:34;;;;;;;39.22;16.85;;;1.70;99.90;;;;;;4953667;28;20130;-77
2021/01/18 05:48:03;;;;;;;35.85;14.98;;;1.60;99.90;;;;;;4967072;28;20055;-77
2021/01/18 05:50:29;;;;;;;33.90;14.68;;;1.50;99.90;;;;;;4952295;28;20162;-77
2021/01/18 05:52:57;;;;;;;31.45;12.82;;;1.50;99.90;;;;;;4953812;28;20131;-77
2021/01/18 05:55:25;;;;;;;40.45;16.30;;;1.40;99.90;;;;;;4952669;28;20478;-77
2021/01/18 05:58:00;;;;;;;43.35;18.55;;;1.50;99.90;;;;;;4951240;28;20073;-77
2021/01/18 06:00:41;;;;;;;34.10;15.75;;;1.60;99.90;;;;;;4953115;28;20093;-77
2021/01/18 06:03:10;;;;;;;43.58;18.23;;;1.60;99.90;;;;;;4951360;29;20059;-77
2021/01/18 06:05:38;;;;;;;43.78;19.98;;;1.60;99.90;;;;;;4952167;28;20063;-77
2021/01/18 06:08:26;;;;;;;50.42;18.52;;;1.50;99.90;;;;;;4952824;28;20078;-77
2021/01/18 06:10:54;;;;;;;39.97;17.85;;;1.50;99.90;;;;;;4950326;28;20185;-77
2021/01/18 06:13:33;;;;;;;44.33;19.48;;;1.60;99.90;;;;;;4941290;28;20434;-77
2021/01/18 06:16:03;;;;;;;49.45;16.73;;;1.60;99.90;;;;;;4946333;28;20463;-77
2021/01/18 06:18:33;;;;;;;52.30;20.08;;;1.50;99.90;;;;;;4952552;28;20214;-77
2021/01/18 06:21:03;;;;;;;51.28;20.65;;;1.60;99.90;;;;;;4952235;29;20093;-77
2021/01/18 06:23:30;;;;;;;47.97;18.23;;;1.60;99.90;;;;;;4953081;28;20092;-77
2021/01/18 06:25:57;;;;;;;37.28;16.90;;;1.50;99.90;;;;;;4951281;28;20191;-77
2021/01/18 06:28:24;;;;;;;48.67;18.60;;;1.40;99.90;;;;;;4951985;28;20055;-77
2021/01/18 06:31:05;;;;;;;58.08;23.25;;;1.40;99.90;;;;;;4951609;28;20082;-77
2021/01/18 06:33:40;;;;;;;51.72;21.58;;;1.50;99.90;;;;;;4952080;29;20355;-77
2021/01/18 06:36:18;;;;;;;53.58;20.98;;;1.50;99.90;;;;;;4952455;28;20043;-77
2021/01/18 06:38:49;;;;;;;71.55;24.13;;;1.50;99.90;;;;;;4950934;28;20098;-77
2021/01/18 06:41:23;;;;;;;51.72;19.65;;;1.50;99.90;;;;;;4948685;29;20490;-77
2021/01/18 06:43:49;;;;;;;46.97;21.52;;;1.60;99.90;;;;;;4952225;28;20146;-77
2021/01/18 06:46:23;;;;;;;51.72;20.65;;;1.50;99.90;;;;;;4952059;28;20109;-77
2021/01/18 06:48:51;;;;;;;48.67;20.30;;;1.50;99.90;;;;;;4952421;29;20090;-77
2021/01/18 06:51:21;;;;;;;57.72;20.90;;;1.50;99.90;;;;;;4949742;29;20070;-77
2021/01/18 06:53:49;;;;;;;44.03;18.23;;;1.50;99.90;;;;;;4951648;28;20047;-77
2021/01/18 06:56:25;;;;;;;53.83;21.60;;;1.40;99.90;;;;;;4949485;29;20051;-77
2021/01/18 06:59:15;;;;;;;55.72;21.10;;;1.40;99.90;;;;;;4963197;28;20133;-77
2021/01/18 07:01:46;;;;;;;49.97;21.63;;;1.40;99.90;;;;;;4944555;29;20389;-77
2021/01/18 07:04:15;;;;;;;70.15;23.45;;;1.40;99.90;;;;;;4949049;28;20047;-77
2021/01/18 07:06:47;;;;;;;60.20;22.67;;;1.40;99.90;;;;;;4948826;28;20134;-77
2021/01/18 07:09:21;;;;;;;50.50;21.30;;;1.40;99.90;;;;;;4950403;28;20058;-77
2021/01/18 07:12:05;;;;;;;70.93;25.17;;;1.50;99.90;;;;;;4951078;28;20423;-77
2021/01/18 07:14:32;;;;;;;53.95;21.73;;;1.60;99.90;;;;;;4951866;28;20102;-77
2021/01/18 07:17:07;;;;;;;68.45;25.52;;;1.60;99.90;;;;;;4950648;28;20039;-77
2021/01/18 07:19:49;;;;;;;52.92;20.50;;;1.60;99.90;;;;;;4949318;28;20083;-77
2021/01/18 07:22:26;;;;;;;;;;;1.60;99.90;;;;;;4950893;28;20185;-77
2021/01/18 07:25:04;;;;;;;52.17;21.92;;;1.60;99.90;;;;;;4939572;29;20350;-78
2021/01/18 07:27:40;;;;;;;73.30;28.05;;;1.60;99.90;;;;;;4948882;28;20089;-77
2021/01/18 07:30:07;;;;;;;63.20;25.92;;;1.60;99.90;;;;;;4932487;29;20086;-77
2021/01/18 07:32:34;;;;;;;67.97;31.45;;;1.60;99.90;;;;;;4943760;29;20106;-78
2021/01/18 07:35:04;;;;;;;71.75;28.40;;;1.60;99.90;;;;;;4953212;28;20102;-77
2021/01/18 07:37:30;;;;;;;54.63;24.75;;;1.60;99.90;;;;;;4949630;28;20074;-77
2021/01/18 07:40:09;;;;;;;70.47;30.70;;;1.50;99.90;;;;;;4949000;29;20455;-77
2021/01/18 07:42:37;;;;;;;47.95;21.10;;;1.50;99.90;;;;;;4949049;28;20077;-77
2021/01/18 07:45:11;;;;;;;62.83;27.95;;;1.50;99.90;;;;;;4948842;28;20092;-77
2021/01/18 07:47:56;;;;;;;48.13;19.30;;;1.50;99.90;;;;;;4963184;28;20506;-77
2021/01/18 07:50:29;;;;;;;59.38;22.02;;;1.50;99.90;;;;;;4950204;28;20082;-77
2021/01/18 07:52:59;;;;;;;46.85;18.63;;;1.50;99.90;;;;;;4950014;28;20051;-77
2021/01/18 07:55:25;;;;;;;44.45;18.55;;;1.40;99.90;;;;;;4949221;28;20438;-77
2021/01/18 07:57:52;;;;;;;63.22;23.05;;;1.40;99.90;;;;;;4950488;28;20090;-78
2021/01/18 08:00:18;;;;;;;50.78;22.13;;;1.50;99.90;;;;;;4950150;28;20164;-78
2021/01/18 08:02:52;;;;;;;45.20;20.98;;;1.50;99.90;;;;;;4950914;28;20196;-77
2021/01/18 08:05:23;;;;;;;52.78;19.55;;;1.50;99.90;;;;;;4941398;28;20073;-78
2021/01/18 08:08:16;;;;;;;46.67;21.83;;;1.50;99.90;;;;;;4948507;28;20597;-77
2021/01/18 08:10:50;;;;;;;58.97;23.85;;;1.60;99.90;;;;;;4943916;28;20110;-78
2021/01/18 08:13:41;;;;;;;53.05;22.50;;;1.60;99.90;;;;;;4944429;28;20054;-78
2021/01/18 08:16:39;;;;;;;55.08;22.17;;;1.60;99.90;;;;;;4947071;28;20070;-78
2021/01/18 08:19:23;;;;;;;54.15;23.25;;;1.60;99.90;;;;;;4943874;29;20233;-78
2021/01/18 08:22:01;;;;;;;60.55;23.00;;;1.50;99.90;;;;;;4955307;28;20121;-77
2021/01/18 08:24:27;;;;;;;46.17;24.42;;;1.60;99.90;;;;;;4950484;28;20043;-77
2021/01/18 08:27:06;;;;;;;42.72;20.85;;;1.70;99.90;;;;;;4943429;28;20048;-77
2021/01/18 08:29:44;;;;;;;47.05;20.13;;;1.60;99.90;;;;;;4948995;28;20058;-77
2021/01/18 08:32:23;;;;;;;46.83;20.10;;;1.60;99.90;;;;;;4949205;28;20043;-77
2021/01/18 08:34:57;;;;;;;32.30;18.30;;;1.70;99.90;;;;;;4948895;28;20193;-77
2021/01/18 08:37:25;;;;;;;30.90;16.95;;;1.70;99.90;;;;;;4939737;28;20412;-77
2021/01/18 08:40:00;;;;;;;33.67;17.65;;;1.70;99.90;;;;;;4945172;28;20498;-77
2021/01/18 08:42:37;;;;;;;32.63;17.17;;;1.80;99.90;;;;;;4948561;28;20074;-77
2021/01/18 08:45:21;;;;;;;33.22;13.60;;;1.80;99.90;;;;;;4949861;29;20138;-77
2021/01/18 08:47:59;;;;;;;25.10;14.85;;;1.60;99.90;;;;;;4963603;28;20146;-77
2021/01/18 08:50:27;;;;;;;26.95;14.27;;;1.70;99.90;;;;;;4951631;28;20055;-77
2021/01/18 08:52:56;;;;;;;31.52;16.80;;;1.60;99.90;;;;;;4954691;28;20047;-77
2021/01/18 08:55:29;;;;;;;29.05;15.38;;;1.60;99.90;;;;;;4954550;28;20219;-77
2021/01/18 08:58:04;;;;;;;36.55;14.63;;;1.70;99.90;;;;;;4953044;28;20051;-77
2021/01/18 09:00:44;;;;;;;31.25;15.40;;;1.70;99.90;;;;;;4954406;28;20482;-77
2021/01/18 09:03:17;;;;;;;37.17;19.45;;;1.70;99.90;;;;;;4954181;28;20050;-77
2021/01/18 09:05:49;;;;;;;34.08;16.23;;;1.70;99.90;;;;;;4952555;29;20545;-77
2021/01/18 09:08:18;;;;;;;36.97;18.10;;;1.80;99.90;;;;;;4943518;28;20135;-76
2021/01/18 09:11:11;;;;;;;38.22;15.98;;;1.70;99.90;;;;;;4941714;28;20558;-76
2021/01/18 09:13:39;;;;;;;41.58;18.65;;;1.80;99.90;;;;;;4949844;29;20071;-77
2021/01/18 09:16:08;;;;;;;44.15;18.02;;;1.70;99.90;;;;;;4966766;28;20122;-77
2021/01/18 09:18:36;;;;;;;46.83;21.38;;;1.70;99.90;;;;;;4935798;29;20184;-77
2021/01/18 09:21:06;;;;;;;52.30;24.38;;;1.80;99.90;;;;;;4953090;28;20055;-77
2021/01/18 09:23:33;;;;;;;43.92;18.95;;;1.90;99.90;;;;;;4951741;28;20082;-77
2021/01/18 09:26:12;;;;;;;33.05;15.57;;;1.80;99.90;;;;;;4954037;28;20098;-77
2021/01/18 09:28:41;;;;;;;48.72;19.70;;;1.70;99.90;;;;;;4953134;28;20056;-77
2021/01/18 09:31:10;;;;;;;45.70;20.75;;;1.80;99.90;;;;;;4954061;28;20055;-77
2021/01/18 09:33:41;;;;;;;44.20;18.95;;;1.90;99.90;;;;;;4952747;28;20043;-76
2021/01/18 09:36:12;;;;;;;57.40;20.75;;;1.90;99.90;;;;;;4952544;28;20043;-70
2021/01/18 09:38:42;;;;;;;39.10;19.75;;;2.00;99.90;;;;;;4952106;28;20058;-69
2021/01/18 09:41:09;;;;;;;52.60;20.98;;;2.00;99.90;;;;;;4951973;28;20458;-70
2021/01/18 09:43:35;;;;;;;45.00;20.92;;;2.00;99.90;;;;;;4952079;28;20082;-70
2021/01/18 09:46:02;;;;;;;44.28;17.35;;;2.00;99.90;;;;;;4951946;28;20111;-70
2021/01/18 09:48:29;;;;;;;44.03;19.88;;;2.00;99.90;;;;;;4966836;28;20577;-70
2021/01/18 09:51:12;;;;;;;51.28;22.30;;;2.10;99.90;;;;;;4967650;28;20082;-70
2021/01/18 09:53:39;;;;;;;47.38;19.65;;;2.00;99.90;;;;;;4951493;29;20110;-70
2021/01/18 09:56:13;;;;;;;38.28;17.80;;;2.00;99.90;;;;;;4951943;28;20051;-70
2021/01/18 09:58:45;;;;;;;48.47;19.55;;;2.10;99.90;;;;;;4951240;29;20078;-70
2021/01/18 10:01:15;;;;;;;38.40;17.17;;;2.10;99.90;;;;;;4951877;28;20520;-70
2021/01/18 10:03:50;;;;;;;44.33;20.20;;;2.10;99.90;;;;;;4952924;28;20150;-70
2021/01/18 10:06:27;;;;;;;44.03;18.40;;;2.30;99.90;;;;;;4953053;28;20105;-70
2021/01/18 10:09:08;;;;;;;37.88;16.73;;;2.30;99.90;;;;;;4952901;28;20475;-70
2021/01/18 10:11:46;;;;;;;46.40;19.23;;;2.20;99.90;;;;;;4951397;28;20043;-70
2021/01/18 10:14:23;;;;;;;40.33;21.02;;;2.30;99.90;;;;;;4948207;29;20106;-68
2021/01/18 10:17:06;;;;;;;40.42;16.88;;;2.40;99.90;;;;;;4947718;28;20056;-69
2021/01/18 10:19:34;;;;;;;;;;;2.40;99.90;;;;;;4936169;29;20051;-70
2021/01/18 10:22:03;;;;;;;29.90;13.98;;;2.20;99.90;;;;;;4951154;29;19933;-69
2021/01/18 10:24:35;;;;;;;35.03;15.52;;;2.30;99.90;;;;;;4950779;28;20503;-69
2021/01/18 10:27:04;;;;;;;22.65;11.52;;;2.40;99.90;;;;;;4952311;28;20074;-70
2021/01/18 10:29:33;;;;;;;28.50;15.35;;;2.40;99.90;;;;;;4951036;29;20055;-69
2021/01/18 10:32:00;;;;;;;28.23;12.80;;;2.60;99.90;;;;;;4952771;28;20486;-69
2021/01/18 10:34:29;;;;;;;31.20;12.25;;;2.60;99.90;;;;;;4952457;28;20382;-69
2021/01/18 10:37:19;;;;;;;28.45;15.27;;;2.70;99.90;;;;;;4951658;28;20050;-70
2021/01/18 10:39:46;;;;;;;30.48;14.25;;;2.90;99.90;;;;;;4951588;28;20047;-70
2021/01/18 10:42:21;;;;;;;23.05;10.35;;;2.90;99.90;;;;;;4950666;28;20525;-69
2021/01/18 10:44:51;;;;;;;32.05;12.70;;;2.80;99.90;;;;;;4951407;28;20528;-70
2021/01/18 10:47:22;;;;;;;34.17;11.90;;;2.90;99.90;;;;;;4941167;28;20183;-71
2021/01/18 10:49:57;;;;;;;27.15;12.43;;;2.90;99.90;;;;;;4950174;29;20130;-71
2021/01/18 10:52:41;;;;;;;28.05;9.63;;;3.20;99.90;;;;;;4944290;29;20126;-70
2021/01/18 10:55:13;;;;;;;28.05;10.32;;;3.20;99.90;;;;;;4950639;28;20532;-71
2021/01/18 10:57:47;;;;;;;27.40;9.88;;;3.20;99.90;;;;;;4947464;29;20051;-71
2021/01/18 11:00:21;;;;;;;14.20;5.57;;;3.10;99.90;;;;;;4949926;28;20050;-71
2021/01/18 11:03:02;;;;;;;18.08;10.13;;;2.90;99.90;;;;;;4942707;29;20048;-70
2021/01/18 11:05:34;;;;;;;21.55;9.32;;;3.10;99.90;;;;;;4950679;28;20054;-70
2021/01/18 11:08:04;;;;;;;17.75;7.00;;;3.10;99.90;;;;;;4949363;29;20082;-70
2021/01/18 11:10:31;;;;;;;23.05;8.52;;;3.10;99.90;;;;;;4945626;28;20051;-70
2021/01/18 11:13:04;;;;;;;25.05;8.80;;;3.00;99.90;;;;;;4938468;28;20059;-70
2021/01/18 11:15:33;;;;;;;;;;;3.10;99.90;;;;;;4936339;29;20047;-69
2021/01/18 11:17:59;;;;;;;21.30;9.60;;;3.00;99.90;;;;;;4950476;29;19922;-70
2021/01/18 11:20:27;;;;;;;15.93;6.47;;;3.10;99.90;;;;;;4949849;28;20123;-70
2021/01/18 11:22:54;;;;;;;21.33;9.38;;;3.10;99.90;;;;;;4947796;29;20099;-70
2021/01/18 11:25:21;;;;;;;22.50;8.93;;;3.20;99.90;;;;;;4951245;28;20078;-70
2021/01/18 11:27:48;;;;;;;18.08;7.88;;;3.30;99.90;;;;;;4948348;28;20055;-69
2021/01/18 11:30:15;;;;;;;22.92;9.18;;;3.40;99.90;;;;;;4946007;28;20047;-69
2021/01/18 11:32:42;;;;;;;19.20;7.53;;;3.50;99.90;;;;;;4951550;28;20078;-69
2021/01/18 11:35:11;;;;;;;23.45;7.93;;;3.40;99.90;;;;;;4950547;28;20054;-69
2021/01/18 11:37:39;;;;;;;15.23;6.65;;;3.30;99.90;;;;;;4950222;28;20043;-70
2021/01/18 11:40:07;;;;;;;17.15;7.80;;;3.20;99.90;;;;;;4950009;29;20518;-69
2021/01/18 11:42:35;;;;;;;24.42;8.32;;;3.20;99.90;;;;;;4949937;28;20075;-69
2021/01/18 11:45:04;;;;;;;16.02;6.28;;;3.20;99.90;;;;;;4948024;28;20050;-69
2021/01/18 11:47:38;;;;;;;20.65;7.28;;;3.10;99.90;;;;;;4954459;28;20054;-69
2021/01/18 11:50:09;;;;;;;25.17;7.45;;;3.30;99.90;;;;;;4950160;28;20183;-69
2021/01/18 11:52:43;;;;;;;17.05;7.55;;;3.20;99.90;;;;;;4950970;28;20051;-69
2021/01/18 11:55:14;;;;;;;19.80;8.38;;;3.20;99.90;;;;;;4944069;29;20055;-69
2021/01/18 11:57:45;;;;;;;22.17;7.68;;;3.30;99.90;;;;;;4947833;28;20240;-69
2021/01/18 12:00:13;;;;;;;16.90;8.13;;;3.40;99.90;;;;;;4948843;28;20505;-70
2021/01/18 12:02:40;;;;;;;17.33;6.80;;;3.60;99.90;;;;;;4960664;28;20113;-69
2021/01/18 12:05:08;;;;;;;14.85;6.38;;;3.40;99.90;;;;;;4949501;29;20051;-70
2021/01/18 12:07:34;;;;;;;16.52;8.13;;;3.60;99.90;;;;;;4949217;29;20078;-70
2021/01/18 12:10:01;;;;;;;18.15;7.18;;;3.60;99.90;;;;;;4946502;28;20087;-70
2021/01/18 12:12:28;;;;;;;15.68;6.95;;;3.70;99.90;;;;;;4945882;28;20055;-69
2021/01/18 12:14:54;;;;;;;12.15;5.55;;;3.90;99.90;;;;;;4945050;28;20596;-70
2021/01/18 12:17:20;;;;;;;17.35;6.55;;;3.70;99.90;;;;;;4948060;28;20206;-70
2021/01/18 12:19:47;;;;;;;13.45;4.93;;;3.60;99.90;;;;;;4949984;28;20134;-70
2021/01/18 12:22:17;;;;;;;15.35;5.53;;;3.70;99.90;;;;;;4948317;28;20043;-69
2021/01/18 12:24:44;;;;;;;17.65;6.32;;;3.70;99.90;;;;;;4953251;28;20054;-70
2021/01/18 12:27:11;;;;;;;15.32;5.00;;;3.70;99.90;;;;;;4955437;28;20127;-70
2021/01/18 12:29:37;;;;;;;16.30;4.90;;;3.60;99.90;;;;;;4956702;28;20122;-70
2021/01/18 12:32:04;;;;;;;18.98;4.50;;;3.60;99.90;;;;;;4952173;28;20138;-69
2021/01/18 12:34:30;;;;;;;20.58;5.57;;;3.60;99.90;;;;;;4954525;29;20055;-70
2021/01/18 12:36:57;;;;;;;19.17;5.43;;;3.70;99.90;;;;;;4955735;28;20131;-69
2021/01/18 12:39:25;;;;;;;15.35;4.65;;;3.80;99.90;;;;;;4956962;28;20047;-69
2021/01/18 12:41:52;;;;;;;12.95;4.75;;;3.90;99.90;;;;;;4955860;28;20137;-69
2021/01/18 12:44:18;;;;;;;24.65;4.57;;;3.70;99.90;;;;;;4956773;28;20055;-70
2021/01/18 12:46:50;;;;;;;15.38;5.13;;;3.90;99.90;;;;;;4954737;28;20055;-70
2021/01/18 12:49:17;;;;;;;15.52;4.50;;;3.90;99.90;;;;;;4955769;28;20051;-70
2021/01/18 12:51:43;;;;;;;11.13;3.70;;;3.90;99.90;;;;;;4953858;29;20043;-70
2021/01/18 12:54:10;;;;;;;18.65;4.97;;;3.80;99.90;;;;;;4952490;29;20475;-69
2021/01/18 12:56:36;;;;;;;16.50;6.32;;;4.00;99.90;;;;;;4953978;28;20108;-70
2021/01/18 12:59:02;;;;;;;16.90;4.40;;;4.00;99.90;;;;;;4950189;28;20055;-70
2021/01/18 13:01:29;;;;;;;9.98;3.60;;;4.10;99.90;;;;;;4948224;28;20505;-70
2021/01/18 13:03:56;;;;;;;13.93;3.47;;;4.20;99.90;;;;;;4956702;28;20047;-70
2021/01/18 13:06:40;;;;;;;10.00;3.38;;;4.20;99.90;;;;;;4947853;28;20138;-70